createdAt,value
2023-08-03T00:00:11.642Z,22.11
2023-08-03T00:01:11.699Z,22.13
2023-08-03T00:02:11.615Z,22.13
2023-08-03T00:03:11.722Z,22.11
2023-08-03T00:04:11.621Z,22.13
2023-08-03T00:05:11.591Z,22.13
2023-08-03T00:06:11.629Z,22.11
2023-08-03T00:07:11.565Z,22.11
2023-08-03T00:08:11.546Z,22.11
2023-08-03T00:09:11.537Z,22.11
2023-08-03T00:10:11.506Z,22.13
2023-08-03T00:11:11.490Z,22.11
2023-08-03T00:12:11.530Z,22.11
2023-08-03T00:13:11.485Z,22.11
2023-08-03T00:14:11.484Z,22.11
2023-08-03T00:15:11.461Z,22.11
2023-08-03T00:16:11.506Z,22.13
2023-08-03T00:17:11.439Z,22.11
2023-08-03T00:18:11.444Z,22.11
2023-08-03T00:19:11.419Z,22.11
2023-08-03T00:20:11.444Z,22.13
2023-08-03T00:21:11.405Z,22.11
2023-08-03T00:22:11.419Z,22.13
2023-08-03T00:23:11.390Z,22.11
2023-08-03T00:24:11.355Z,22.11
2023-08-03T00:25:11.358Z,22.11
2023-08-03T00:26:11.356Z,22.11
2023-08-03T00:27:11.343Z,22.11
2023-08-03T00:28:11.354Z,22.13
2023-08-03T00:29:11.305Z,22.11
2023-08-03T00:30:11.330Z,22.13
2023-08-03T00:31:11.322Z,22.11
2023-08-03T00:32:11.311Z,22.11
2023-08-03T00:33:11.285Z,22.13
2023-08-03T00:34:11.277Z,22.11
2023-08-03T00:35:11.265Z,22.10
2023-08-03T00:36:11.255Z,22.11
2023-08-03T00:37:11.236Z,22.13
2023-08-03T00:38:11.291Z,22.13
2023-08-03T00:39:11.200Z,22.11
2023-08-03T00:40:11.221Z,22.10
2023-08-03T00:41:11.199Z,22.11
2023-08-03T00:42:11.197Z,22.11
2023-08-03T00:43:11.186Z,22.11
2023-08-03T00:44:11.160Z,22.11
2023-08-03T00:45:11.149Z,22.11
2023-08-03T00:46:11.196Z,22.11
2023-08-03T00:47:11.139Z,22.11
2023-08-03T00:48:11.108Z,22.13
2023-08-03T00:49:11.092Z,22.11
2023-08-03T00:50:11.143Z,22.10
2023-08-03T00:51:11.082Z,22.11
2023-08-03T00:52:11.081Z,22.10
2023-08-03T00:53:11.060Z,22.11
2023-08-03T00:54:11.187Z,22.10
2023-08-03T00:55:11.035Z,22.11
2023-08-03T00:56:11.035Z,22.11
2023-08-03T00:57:11.018Z,22.10
2023-08-03T00:58:11.005Z,22.11
2023-08-03T00:59:11.040Z,22.11
2023-08-03T01:00:10.996Z,22.11
2023-08-03T01:01:11.006Z,22.10
2023-08-03T01:02:10.978Z,22.10
2023-08-03T01:03:11.035Z,22.11
2023-08-03T01:04:10.949Z,22.11
2023-08-03T01:05:10.953Z,22.10
2023-08-03T01:06:10.991Z,22.11
2023-08-03T01:07:10.893Z,22.11
2023-08-03T01:08:10.918Z,22.10
2023-08-03T01:09:10.872Z,22.10
2023-08-03T01:10:10.958Z,22.11
2023-08-03T01:11:10.854Z,22.11
2023-08-03T01:12:10.868Z,22.11
2023-08-03T01:13:10.850Z,22.10
2023-08-03T01:14:10.833Z,22.10
2023-08-03T01:15:10.818Z,22.10
2023-08-03T01:16:10.985Z,22.11
2023-08-03T01:17:10.810Z,22.11
2023-08-03T01:18:10.811Z,22.10
2023-08-03T01:19:10.776Z,22.10
2023-08-03T01:20:10.789Z,22.10
2023-08-03T01:21:10.845Z,22.08
2023-08-03T01:22:10.782Z,22.10
2023-08-03T01:23:10.768Z,22.10
2023-08-03T01:24:10.746Z,22.10
2023-08-03T01:25:10.723Z,22.10
2023-08-03T01:26:10.699Z,22.10
2023-08-03T01:27:10.698Z,22.10
2023-08-03T01:28:10.716Z,22.10
2023-08-03T01:29:10.670Z,22.08
2023-08-03T01:30:10.678Z,22.10
2023-08-03T01:31:10.762Z,22.10
2023-08-03T01:32:10.670Z,22.10
2023-08-03T01:33:10.762Z,22.08
2023-08-03T01:34:10.655Z,22.08
2023-08-03T01:35:10.663Z,22.08
2023-08-03T01:36:10.707Z,22.08
2023-08-03T01:37:10.595Z,22.10
2023-08-03T01:38:10.578Z,22.10
2023-08-03T01:39:10.579Z,22.08
2023-08-03T01:40:10.553Z,22.10
2023-08-03T01:41:10.558Z,22.10
2023-08-03T01:42:10.519Z,22.10
2023-08-03T01:43:10.543Z,22.08
2023-08-03T01:44:10.503Z,22.08
2023-08-03T01:45:10.512Z,22.10
2023-08-03T01:46:10.525Z,22.08
2023-08-03T01:47:10.490Z,22.08
2023-08-03T01:48:10.516Z,22.08
2023-08-03T01:49:10.448Z,22.08
2023-08-03T01:50:10.454Z,22.08
2023-08-03T01:51:10.467Z,22.10
2023-08-03T01:52:10.432Z,22.08
2023-08-03T01:53:10.405Z,22.08
2023-08-03T01:54:10.393Z,22.10
2023-08-03T01:55:10.390Z,22.10
2023-08-03T01:56:10.385Z,22.08
2023-08-03T01:57:10.402Z,22.10
2023-08-03T01:58:10.359Z,22.08
2023-08-03T01:59:10.366Z,22.08
2023-08-03T02:00:10.357Z,22.08
2023-08-03T02:01:10.331Z,22.07
2023-08-03T02:02:10.380Z,22.08
2023-08-03T02:03:10.319Z,22.08
2023-08-03T02:04:10.390Z,22.10
2023-08-03T02:05:10.328Z,22.08
2023-08-03T02:06:10.277Z,22.08
2023-08-03T02:07:10.253Z,22.08
2023-08-03T02:08:10.238Z,22.08
2023-08-03T02:09:10.252Z,22.08
2023-08-03T02:10:10.253Z,22.08
2023-08-03T02:11:10.231Z,22.08
2023-08-03T02:12:10.209Z,22.08
2023-08-03T02:13:10.219Z,22.08
2023-08-03T02:14:10.181Z,22.08
2023-08-03T02:15:10.179Z,22.08
2023-08-03T02:16:23.766Z,22.08
2023-08-03T02:17:11.172Z,22.08
2023-08-03T02:18:10.175Z,22.10
2023-08-03T02:19:10.119Z,22.08
2023-08-03T02:20:10.129Z,22.08
2023-08-03T02:21:10.096Z,22.08
2023-08-03T02:22:10.089Z,22.10
2023-08-03T02:23:10.105Z,22.08
2023-08-03T02:24:10.069Z,22.08
2023-08-03T02:25:10.060Z,22.08
2023-08-03T02:26:10.063Z,22.08
2023-08-03T02:27:10.060Z,22.10
2023-08-03T02:28:10.040Z,22.10
2023-08-03T02:29:10.055Z,22.08
2023-08-03T02:30:10.022Z,22.08
2023-08-03T02:31:10.017Z,22.07
2023-08-03T02:32:09.993Z,22.08
2023-08-03T02:33:10.016Z,22.07
2023-08-03T02:34:09.974Z,22.08
2023-08-03T02:35:09.991Z,22.07
2023-08-03T02:36:09.928Z,22.08
2023-08-03T02:37:09.931Z,22.07
2023-08-03T02:38:09.912Z,22.08
2023-08-03T02:39:09.952Z,22.07
2023-08-03T02:40:10.037Z,22.08
2023-08-03T02:41:09.927Z,22.07
2023-08-03T02:42:09.901Z,22.07
2023-08-03T02:43:09.891Z,22.08
2023-08-03T02:44:09.883Z,22.07
2023-08-03T02:45:09.892Z,22.08
2023-08-03T02:46:09.932Z,22.07
2023-08-03T02:47:09.826Z,22.07
2023-08-03T02:48:09.824Z,22.08
2023-08-03T02:49:09.797Z,22.08
2023-08-03T02:50:09.798Z,22.07
2023-08-03T02:51:09.800Z,22.08
2023-08-03T02:52:09.773Z,22.07
2023-08-03T02:53:09.781Z,22.07
2023-08-03T02:54:09.755Z,22.08
2023-08-03T02:55:09.763Z,22.07
2023-08-03T02:56:09.763Z,22.07
2023-08-03T02:57:09.782Z,22.07
2023-08-03T02:58:09.706Z,22.06
2023-08-03T02:59:09.707Z,22.06
2023-08-03T03:00:09.696Z,22.07
2023-08-03T03:01:09.696Z,22.07
2023-08-03T03:02:09.670Z,22.07
2023-08-03T03:03:09.742Z,22.07
2023-08-03T03:04:09.635Z,22.08
2023-08-03T03:05:09.620Z,22.06
2023-08-03T03:06:10.597Z,22.07
2023-08-03T03:07:09.643Z,22.07
2023-08-03T03:08:09.606Z,22.07
2023-08-03T03:09:09.595Z,22.07
2023-08-03T03:10:09.593Z,22.07
2023-08-03T03:11:09.572Z,22.07
2023-08-03T03:12:10.505Z,22.06
2023-08-03T03:13:09.561Z,22.06
2023-08-03T03:14:09.519Z,22.06
2023-08-03T03:15:09.516Z,22.06
2023-08-03T03:16:09.608Z,22.06
2023-08-03T03:17:09.538Z,22.06
2023-08-03T03:18:09.553Z,22.06
2023-08-03T03:19:09.496Z,22.06
2023-08-03T03:20:09.537Z,22.07
2023-08-03T03:21:09.564Z,22.07
2023-08-03T03:22:09.449Z,22.07
2023-08-03T03:23:09.451Z,22.07
2023-08-03T03:24:09.433Z,22.06
2023-08-03T03:25:09.435Z,22.06
2023-08-03T03:26:09.426Z,22.07
2023-08-03T03:27:09.398Z,22.06
2023-08-03T03:28:09.393Z,22.07
2023-08-03T03:29:09.388Z,22.07
2023-08-03T03:30:09.369Z,22.06
2023-08-03T03:31:09.358Z,22.06
2023-08-03T03:32:09.387Z,22.04
2023-08-03T03:33:09.335Z,22.06
2023-08-03T03:34:09.307Z,22.04
2023-08-03T03:35:09.310Z,22.06
2023-08-03T03:36:09.315Z,22.04
2023-08-03T03:37:09.293Z,22.07
2023-08-03T03:38:09.312Z,22.04
2023-08-03T03:39:09.273Z,22.06
2023-08-03T03:40:09.263Z,22.06
2023-08-03T03:41:09.294Z,22.06
2023-08-03T03:42:09.246Z,22.06
2023-08-03T03:43:09.219Z,22.06
2023-08-03T03:44:09.202Z,22.06
2023-08-03T03:45:09.225Z,22.06
2023-08-03T03:46:09.266Z,22.07
2023-08-03T03:47:09.218Z,22.04
2023-08-03T03:48:09.223Z,22.06
2023-08-03T03:49:09.171Z,22.04
2023-08-03T03:50:09.159Z,22.06
2023-08-03T03:51:09.151Z,22.06
2023-08-03T03:52:09.150Z,22.04
2023-08-03T03:53:09.130Z,22.06
2023-08-03T03:54:09.128Z,22.06
2023-08-03T03:55:09.119Z,22.06
2023-08-03T03:56:09.084Z,22.04
2023-08-03T03:57:09.097Z,22.06
2023-08-03T03:58:09.073Z,22.04
2023-08-03T03:59:09.059Z,22.04
2023-08-03T04:00:09.040Z,22.06
2023-08-03T04:01:09.062Z,22.06
2023-08-03T04:02:09.047Z,22.02
2023-08-03T04:03:09.207Z,22.04
2023-08-03T04:04:09.000Z,22.06
2023-08-03T04:05:09.106Z,22.04
2023-08-03T04:06:08.982Z,22.04
2023-08-03T04:07:08.971Z,22.04
2023-08-03T04:08:08.948Z,22.06
2023-08-03T04:09:08.942Z,22.04
2023-08-03T04:10:08.925Z,22.02
2023-08-03T04:11:08.931Z,22.04
2023-08-03T04:12:08.920Z,22.04
2023-08-03T04:13:08.906Z,22.02
2023-08-03T04:14:08.892Z,22.04
2023-08-03T04:15:08.883Z,22.04
2023-08-03T04:16:08.898Z,22.04
2023-08-03T04:17:08.852Z,22.02
2023-08-03T04:18:08.824Z,22.04
2023-08-03T04:19:08.858Z,22.04
2023-08-03T04:20:08.865Z,22.04
2023-08-03T04:21:08.811Z,22.02
2023-08-03T04:22:08.805Z,22.04
2023-08-03T04:23:08.786Z,22.02
2023-08-03T04:24:08.792Z,22.04
2023-08-03T04:25:08.806Z,22.02
2023-08-03T04:26:08.807Z,22.02
2023-08-03T04:27:08.766Z,22.02
2023-08-03T04:28:08.735Z,22.06
2023-08-03T04:29:08.728Z,22.02
2023-08-03T04:30:08.707Z,22.04
2023-08-03T04:31:08.737Z,22.04
2023-08-03T04:32:08.700Z,22.00
2023-08-03T04:33:08.697Z,22.02
2023-08-03T04:34:08.708Z,22.02
2023-08-03T04:35:08.651Z,22.04
2023-08-03T04:36:08.653Z,22.02
2023-08-03T04:37:08.679Z,22.02
2023-08-03T04:38:08.653Z,22.02
2023-08-03T04:39:08.676Z,22.02
2023-08-03T04:40:08.646Z,22.02
2023-08-03T04:41:08.598Z,22.02
2023-08-03T04:42:08.648Z,22.02
2023-08-03T04:43:08.585Z,22.00
2023-08-03T04:44:08.558Z,22.02
2023-08-03T04:45:08.559Z,22.02
2023-08-03T04:46:08.584Z,22.02
2023-08-03T04:47:08.552Z,22.02
2023-08-03T04:48:08.540Z,22.02
2023-08-03T04:49:08.528Z,22.00
2023-08-03T04:50:08.496Z,22.02
2023-08-03T04:51:08.495Z,22.02
2023-08-03T04:52:08.495Z,22.00
2023-08-03T04:53:08.526Z,22.02
2023-08-03T04:54:08.453Z,22.02
2023-08-03T04:55:08.473Z,22.00
2023-08-03T04:56:08.470Z,22.02
2023-08-03T04:57:08.418Z,22.02
2023-08-03T04:58:08.398Z,22.02
2023-08-03T04:59:08.422Z,22.02
2023-08-03T05:00:08.379Z,22.00
2023-08-03T05:01:08.490Z,22.00
2023-08-03T05:02:08.428Z,22.02
2023-08-03T05:03:08.410Z,22.02
2023-08-03T05:04:08.392Z,22.00
2023-08-03T05:05:08.348Z,22.00
2023-08-03T05:06:08.368Z,22.00
2023-08-03T05:07:08.364Z,22.00
2023-08-03T05:08:08.298Z,22.02
2023-08-03T05:09:08.394Z,22.00
2023-08-03T05:10:08.303Z,22.00
2023-08-03T05:11:08.302Z,22.00
2023-08-03T05:12:08.287Z,22.00
2023-08-03T05:13:08.245Z,22.00
2023-08-03T05:14:08.222Z,22.00
2023-08-03T05:15:08.246Z,22.00
2023-08-03T05:16:08.226Z,22.00
2023-08-03T05:17:08.241Z,22.00
2023-08-03T05:18:08.263Z,21.99
2023-08-03T05:19:08.203Z,21.99
2023-08-03T05:20:08.232Z,21.99
2023-08-03T05:21:08.156Z,22.00
2023-08-03T05:22:08.163Z,22.00
2023-08-03T05:23:08.166Z,22.00
2023-08-03T05:24:08.162Z,22.00
2023-08-03T05:25:08.128Z,21.99
2023-08-03T05:26:08.201Z,22.00
2023-08-03T05:27:08.132Z,21.99
2023-08-03T05:28:08.104Z,22.00
2023-08-03T05:29:08.123Z,22.02
2023-08-03T05:30:08.062Z,21.99
2023-08-03T05:31:08.091Z,22.00
2023-08-03T05:32:08.064Z,22.00
2023-08-03T05:33:08.048Z,21.99
2023-08-03T05:34:08.040Z,21.99
2023-08-03T05:35:08.054Z,21.99
2023-08-03T05:36:08.043Z,21.99
2023-08-03T05:37:08.037Z,21.99
2023-08-03T05:38:08.087Z,21.99
2023-08-03T05:39:07.959Z,22.00
2023-08-03T05:40:07.977Z,21.99
2023-08-03T05:41:08.603Z,21.99
2023-08-03T05:42:07.933Z,21.99
2023-08-03T05:43:07.922Z,21.99
2023-08-03T05:44:07.924Z,21.98
2023-08-03T05:45:08.582Z,21.99
2023-08-03T05:46:07.956Z,21.98
2023-08-03T05:47:07.864Z,21.99
2023-08-03T05:48:07.920Z,21.98
2023-08-03T05:49:07.868Z,21.99
2023-08-03T05:50:07.876Z,21.99
2023-08-03T05:51:07.837Z,21.99
2023-08-03T05:52:07.817Z,21.99
2023-08-03T05:53:07.950Z,21.99
2023-08-03T05:54:07.813Z,21.98
2023-08-03T05:55:07.810Z,21.98
2023-08-03T05:56:12.318Z,21.98
2023-08-03T05:57:07.770Z,21.99
2023-08-03T05:58:07.755Z,21.98
2023-08-03T05:59:07.885Z,21.99
2023-08-03T06:00:07.766Z,21.98
2023-08-03T06:01:07.758Z,21.96
2023-08-03T06:02:07.747Z,21.98
2023-08-03T06:03:07.777Z,21.98
2023-08-03T06:04:07.739Z,21.96
2023-08-03T06:05:07.711Z,21.98
2023-08-03T06:06:07.776Z,21.98
2023-08-03T06:07:07.692Z,21.98
2023-08-03T06:08:07.667Z,21.98
2023-08-03T06:09:07.732Z,21.98
2023-08-03T06:10:07.635Z,21.98
2023-08-03T06:11:07.662Z,21.98
2023-08-03T06:12:07.608Z,21.98
2023-08-03T06:13:07.681Z,21.98
2023-08-03T06:14:07.612Z,21.98
2023-08-03T06:15:07.576Z,21.98
2023-08-03T06:16:07.645Z,21.99
2023-08-03T06:17:07.564Z,21.98
2023-08-03T06:18:07.689Z,21.98
2023-08-03T06:19:07.779Z,21.99
2023-08-03T06:20:07.531Z,21.98
2023-08-03T06:21:07.513Z,21.98
2023-08-03T06:22:07.519Z,21.98
2023-08-03T06:23:09.165Z,21.96
2023-08-03T06:24:07.509Z,21.96
2023-08-03T06:25:07.464Z,21.98
2023-08-03T06:26:07.489Z,21.98
2023-08-03T06:27:07.434Z,21.96
2023-08-03T06:28:07.489Z,21.96
2023-08-03T06:29:07.444Z,21.96
2023-08-03T06:30:07.419Z,21.96
2023-08-03T06:31:07.402Z,21.98
2023-08-03T06:32:07.558Z,21.98
2023-08-03T06:33:07.411Z,21.98
2023-08-03T06:34:07.385Z,21.96
2023-08-03T06:35:07.378Z,21.96
2023-08-03T06:36:07.363Z,21.96
2023-08-03T06:37:07.329Z,21.96
2023-08-03T06:38:07.326Z,21.96
2023-08-03T06:39:07.328Z,21.98
2023-08-03T06:40:07.301Z,21.96
2023-08-03T06:41:07.283Z,21.96
2023-08-03T06:42:07.301Z,21.95
2023-08-03T06:43:07.272Z,21.96
2023-08-03T06:44:10.470Z,21.95
2023-08-03T06:45:07.308Z,21.96
2023-08-03T06:46:07.336Z,21.96
2023-08-03T06:47:07.242Z,21.96
2023-08-03T06:48:07.233Z,21.96
2023-08-03T06:49:07.215Z,21.96
2023-08-03T06:50:07.231Z,21.96
2023-08-03T06:51:07.181Z,21.96
2023-08-03T06:52:07.191Z,21.96
2023-08-03T06:53:07.158Z,21.95
2023-08-03T06:54:07.177Z,21.96
2023-08-03T06:55:07.157Z,21.96
2023-08-03T06:56:07.196Z,21.95
2023-08-03T06:57:07.163Z,21.95
2023-08-03T06:58:07.107Z,21.95
2023-08-03T06:59:07.105Z,21.96
2023-08-03T07:00:07.094Z,21.95
2023-08-03T07:01:07.130Z,21.96
2023-08-03T07:02:07.089Z,21.95
2023-08-03T07:03:07.224Z,21.96
2023-08-03T07:04:07.070Z,21.96
2023-08-03T07:05:07.066Z,21.96
2023-08-03T07:06:07.107Z,21.95
2023-08-03T07:07:07.022Z,21.95
2023-08-03T07:08:07.018Z,21.96
2023-08-03T07:09:07.006Z,21.95
2023-08-03T07:10:06.991Z,21.95
2023-08-03T07:11:06.998Z,21.96
2023-08-03T07:12:06.992Z,21.98
2023-08-03T07:13:06.961Z,21.95
2023-08-03T07:14:06.974Z,21.95
2023-08-03T07:15:06.972Z,21.96
2023-08-03T07:16:06.979Z,21.95
2023-08-03T07:17:06.919Z,21.95
2023-08-03T07:18:06.966Z,21.96
2023-08-03T07:19:06.885Z,21.95
2023-08-03T07:20:06.878Z,21.95
2023-08-03T07:21:06.860Z,21.95
2023-08-03T07:22:06.858Z,21.95
2023-08-03T07:23:06.850Z,21.96
2023-08-03T07:24:06.838Z,21.95
2023-08-03T07:25:06.831Z,21.96
2023-08-03T07:26:06.801Z,21.95
2023-08-03T07:27:06.880Z,21.95
2023-08-03T07:28:06.806Z,21.95
2023-08-03T07:29:06.765Z,21.95
2023-08-03T07:30:06.763Z,21.95
2023-08-03T07:31:06.838Z,21.96
2023-08-03T07:32:06.762Z,21.96
2023-08-03T07:33:06.792Z,21.95
2023-08-03T07:34:06.738Z,21.95
2023-08-03T07:35:06.725Z,21.96
2023-08-03T07:36:06.714Z,21.95
2023-08-03T07:37:06.697Z,21.95
2023-08-03T07:38:06.689Z,21.96
2023-08-03T07:39:06.694Z,21.95
2023-08-03T07:40:06.690Z,21.95
2023-08-03T07:41:06.666Z,21.95
2023-08-03T07:42:06.748Z,21.96
2023-08-03T07:43:06.696Z,21.95
2023-08-03T07:44:06.628Z,21.96
2023-08-03T07:45:06.613Z,21.96
2023-08-03T07:46:06.640Z,21.96
2023-08-03T07:47:06.608Z,21.95
2023-08-03T07:48:06.601Z,21.95
2023-08-03T07:49:06.558Z,21.96
2023-08-03T07:50:06.572Z,21.96
2023-08-03T07:51:06.553Z,21.95
2023-08-03T07:52:06.531Z,21.96
2023-08-03T07:53:06.522Z,21.96
2023-08-03T07:54:06.518Z,21.96
2023-08-03T07:55:06.524Z,21.96
2023-08-03T07:56:06.482Z,21.95
2023-08-03T07:57:06.488Z,21.96
2023-08-03T07:58:06.467Z,21.96
2023-08-03T07:59:06.465Z,21.96
2023-08-03T08:00:06.652Z,21.96
2023-08-03T08:01:06.665Z,21.95
2023-08-03T08:02:06.441Z,21.96
2023-08-03T08:03:06.449Z,21.96
2023-08-03T08:04:06.449Z,21.96
2023-08-03T08:05:06.421Z,21.95
2023-08-03T08:06:06.404Z,21.96
2023-08-03T08:07:06.394Z,21.95
2023-08-03T08:08:06.405Z,21.96
2023-08-03T08:09:06.379Z,21.96
2023-08-03T08:10:06.364Z,21.96
2023-08-03T08:11:12.385Z,21.96
2023-08-03T08:12:07.366Z,21.95
2023-08-03T08:13:06.291Z,21.96
2023-08-03T08:14:06.337Z,21.96
2023-08-03T08:15:06.306Z,21.98
2023-08-03T08:16:06.375Z,21.98
2023-08-03T08:17:13.548Z,21.98
2023-08-03T08:18:07.351Z,21.96
2023-08-03T08:19:06.298Z,21.96
2023-08-03T08:20:06.255Z,21.96
2023-08-03T08:21:06.308Z,21.96
2023-08-03T08:22:15.587Z,21.98
2023-08-03T08:23:07.252Z,21.96
2023-08-03T08:24:06.367Z,21.98
2023-08-03T08:25:06.345Z,21.96
2023-08-03T08:26:06.407Z,21.98
2023-08-03T08:27:06.416Z,21.98
2023-08-03T08:28:06.284Z,21.96
2023-08-03T08:29:08.357Z,21.96
2023-08-03T08:30:07.253Z,21.96
2023-08-03T08:31:06.142Z,21.96
2023-08-03T08:32:06.167Z,21.98
2023-08-03T08:33:06.184Z,21.98
2023-08-03T08:34:06.141Z,21.98
2023-08-03T08:35:06.057Z,21.96
2023-08-03T08:36:06.250Z,21.98
2023-08-03T08:37:06.040Z,21.96
2023-08-03T08:38:06.040Z,21.98
2023-08-03T08:39:06.099Z,21.98
2023-08-03T08:40:06.034Z,21.98
2023-08-03T08:41:06.019Z,21.98
2023-08-03T08:42:05.999Z,21.99
2023-08-03T08:43:06.004Z,21.99
2023-08-03T08:44:06.085Z,21.98
2023-08-03T08:45:05.995Z,21.98
2023-08-03T08:46:05.964Z,21.98
2023-08-03T08:47:05.975Z,21.99
2023-08-03T08:49:05.996Z,21.99
2023-08-03T08:51:07.920Z,21.99
2023-08-03T08:52:06.007Z,21.99
2023-08-03T08:57:01.800Z,21.98
2023-08-03T08:57:10.952Z,21.99
2023-08-03T09:00:05.821Z,22.00
2023-08-03T09:01:05.880Z,21.99
2023-08-03T09:02:05.802Z,21.99
2023-08-03T09:03:05.844Z,22.00
2023-08-03T09:05:06.026Z,21.99
2023-08-03T09:07:05.968Z,22.00
2023-08-03T09:08:05.761Z,22.02
2023-08-03T09:09:05.716Z,22.02
2023-08-03T09:10:05.673Z,22.04
2023-08-03T09:11:06.405Z,22.02
2023-08-03T09:12:07.921Z,22.02
2023-08-03T09:13:05.636Z,22.04
2023-08-03T09:14:05.734Z,22.02
2023-08-03T09:15:05.705Z,22.02
2023-08-03T09:16:05.762Z,22.04
2023-08-03T09:17:05.702Z,22.06
2023-08-03T09:18:05.764Z,22.06
2023-08-03T09:19:05.591Z,22.04
2023-08-03T09:22:05.580Z,22.06
2023-08-03T09:25:05.607Z,22.07
2023-08-03T09:26:05.530Z,22.07
2023-08-03T09:27:05.554Z,22.08
2023-08-03T09:28:38.231Z,22.08
2023-08-03T09:29:06.637Z,22.07
2023-08-03T09:30:15.260Z,22.08
2023-08-03T09:31:06.502Z,22.10
2023-08-03T09:32:06.366Z,22.08
2023-08-03T09:33:05.548Z,22.10
2023-08-03T09:34:05.657Z,22.08
2023-08-03T09:35:05.405Z,22.10
2023-08-03T09:36:05.422Z,22.10
2023-08-03T09:38:05.502Z,22.10
2023-08-03T09:39:05.428Z,22.10
2023-08-03T09:40:05.393Z,22.10
2023-08-03T09:41:05.557Z,22.10
2023-08-03T09:42:05.644Z,22.11
2023-08-03T09:43:05.352Z,22.11
2023-08-03T09:44:05.375Z,22.11
2023-08-03T09:45:05.988Z,22.10
2023-08-03T09:46:05.350Z,22.11
2023-08-03T09:47:05.361Z,22.11
2023-08-03T09:48:05.402Z,22.11
2023-08-03T09:50:05.371Z,22.11
2023-08-03T09:51:05.448Z,22.14
2023-08-03T09:52:05.603Z,22.13
2023-08-03T09:53:15.751Z,22.13
2023-08-03T09:55:07.815Z,22.14
2023-08-03T09:56:05.274Z,22.14
2023-08-03T09:58:05.190Z,22.13
2023-08-03T09:59:05.327Z,22.14
2023-08-03T10:00:05.295Z,22.13
2023-08-03T10:01:05.481Z,22.14
2023-08-03T10:02:05.209Z,22.13
2023-08-03T10:03:05.183Z,22.13
2023-08-03T10:04:05.126Z,22.11
2023-08-03T10:05:05.219Z,22.13
2023-08-03T10:06:05.106Z,22.13
2023-08-03T10:07:05.180Z,22.13
2023-08-03T10:08:05.085Z,22.13
2023-08-03T10:09:05.051Z,22.13
2023-08-03T10:10:05.127Z,22.14
2023-08-03T10:11:05.117Z,22.14
2023-08-03T10:12:05.033Z,22.14
2023-08-03T10:13:05.036Z,22.13
2023-08-03T10:14:05.041Z,22.14
2023-08-03T10:15:05.038Z,22.13
2023-08-03T10:16:05.086Z,22.14
2023-08-03T10:17:05.045Z,22.13
2023-08-03T10:18:04.986Z,22.13
2023-08-03T10:19:05.109Z,22.13
2023-08-03T10:20:04.953Z,22.14
2023-08-03T10:21:04.996Z,22.14
2023-08-03T10:22:04.996Z,22.14
2023-08-03T10:23:04.951Z,22.15
2023-08-03T10:24:04.885Z,22.15
2023-08-03T10:25:04.899Z,22.17
2023-08-03T10:26:04.887Z,22.17
2023-08-03T10:27:07.786Z,22.17
2023-08-03T10:28:04.880Z,22.17
2023-08-03T10:29:04.885Z,22.18
2023-08-03T10:30:04.836Z,22.18
2023-08-03T10:31:04.866Z,22.18
2023-08-03T10:32:04.802Z,22.18
2023-08-03T10:33:04.871Z,22.20
2023-08-03T10:34:05.224Z,22.22
2023-08-03T10:35:05.383Z,22.20
2023-08-03T10:36:04.758Z,22.20
2023-08-03T10:37:04.864Z,22.20
2023-08-03T10:38:04.715Z,22.22
2023-08-03T10:39:04.751Z,22.23
2023-08-03T10:40:04.751Z,22.22
2023-08-03T10:41:04.709Z,22.23
2023-08-03T10:42:04.716Z,22.23
2023-08-03T10:43:04.731Z,22.25
2023-08-03T10:44:04.971Z,22.23
2023-08-03T10:45:04.865Z,22.25
2023-08-03T10:46:04.864Z,22.26
2023-08-03T10:47:04.765Z,22.25
2023-08-03T10:48:05.007Z,22.26
2023-08-03T10:49:04.748Z,22.26
2023-08-03T10:50:04.633Z,22.28
2023-08-03T10:51:04.694Z,22.26
2023-08-03T10:52:04.622Z,22.28
2023-08-03T10:53:04.960Z,22.28
2023-08-03T10:54:04.811Z,22.28
2023-08-03T10:55:04.709Z,22.28
2023-08-03T10:56:04.600Z,22.29
2023-08-03T10:57:04.690Z,22.29
2023-08-03T10:58:04.533Z,22.29
2023-08-03T10:59:04.589Z,22.30
2023-08-03T11:00:05.189Z,22.29
2023-08-03T11:01:04.520Z,22.30
2023-08-03T11:02:04.568Z,22.30
2023-08-03T11:03:04.622Z,22.30
2023-08-03T11:04:04.583Z,22.32
2023-08-03T11:05:08.134Z,22.30
2023-08-03T11:06:04.452Z,22.32
2023-08-03T11:07:04.446Z,22.32
2023-08-03T11:08:04.474Z,22.32
2023-08-03T11:09:04.412Z,22.33
2023-08-03T11:10:04.381Z,22.33
2023-08-03T11:11:04.433Z,22.33
2023-08-03T11:12:04.404Z,22.35
2023-08-03T11:13:04.407Z,22.33
2023-08-03T11:14:04.466Z,22.33
2023-08-03T11:15:04.422Z,22.35
2023-08-03T11:16:04.403Z,22.35
2023-08-03T11:17:04.343Z,22.36
2023-08-03T11:18:04.416Z,22.35
2023-08-03T11:19:04.550Z,22.36
2023-08-03T11:20:04.594Z,22.38
2023-08-03T11:21:04.276Z,22.38
2023-08-03T11:22:04.488Z,22.38
2023-08-03T11:23:04.298Z,22.39
2023-08-03T11:24:04.346Z,22.39
2023-08-03T11:25:04.238Z,22.41
2023-08-03T11:26:04.224Z,22.41
2023-08-03T11:27:04.221Z,22.41
2023-08-03T11:28:04.298Z,22.41
2023-08-03T11:29:04.236Z,22.41
2023-08-03T11:30:04.199Z,22.43
2023-08-03T11:31:04.232Z,22.43
2023-08-03T11:32:04.258Z,22.43
2023-08-03T11:33:04.276Z,22.41
2023-08-03T11:34:04.188Z,22.41
2023-08-03T11:35:04.173Z,22.43
2023-08-03T11:36:04.129Z,22.43
2023-08-03T11:37:04.120Z,22.43
2023-08-03T11:38:04.316Z,22.43
2023-08-03T11:39:04.117Z,22.44
2023-08-03T11:40:04.105Z,22.43
2023-08-03T11:41:04.184Z,22.44
2023-08-03T11:42:04.030Z,22.44
2023-08-03T11:43:04.024Z,22.43
2023-08-03T11:44:04.220Z,22.43
2023-08-03T11:45:04.024Z,22.45
2023-08-03T11:46:04.108Z,22.45
2023-08-03T11:47:04.061Z,22.45
2023-08-03T11:48:04.012Z,22.45
2023-08-03T11:49:03.995Z,22.45
2023-08-03T11:50:04.017Z,22.45
2023-08-03T11:51:04.025Z,22.43
2023-08-03T11:52:03.983Z,22.44
2023-08-03T11:54:03.957Z,22.44
2023-08-03T11:55:03.953Z,22.43
2023-08-03T11:56:03.954Z,22.43
2023-08-03T11:57:03.896Z,22.39
2023-08-03T11:58:03.967Z,22.41
2023-08-03T11:59:03.954Z,22.41
2023-08-03T12:00:03.938Z,22.38
2023-08-03T12:01:03.924Z,22.39
2023-08-03T12:02:03.966Z,22.39
2023-08-03T12:03:03.949Z,22.39
2023-08-03T12:04:03.938Z,22.38
2023-08-03T12:06:09.126Z,22.39
2023-08-03T12:08:06.796Z,22.39
2023-08-03T12:09:03.818Z,22.38
2023-08-03T12:10:03.817Z,22.38
2023-08-03T12:11:03.786Z,22.38
2023-08-03T12:12:04.068Z,22.38
2023-08-03T12:13:03.811Z,22.38
2023-08-03T12:14:03.731Z,22.39
2023-08-03T12:15:03.771Z,22.41
2023-08-03T12:16:03.693Z,22.41
2023-08-03T12:18:03.711Z,22.39
2023-08-03T12:19:03.749Z,22.41
2023-08-03T12:20:03.715Z,22.39
2023-08-03T12:21:04.166Z,22.39
2023-08-03T12:22:04.470Z,22.41
2023-08-03T12:23:03.629Z,22.39
2023-08-03T12:24:04.609Z,22.39
2023-08-03T12:25:03.682Z,22.39
2023-08-03T12:26:03.591Z,22.39
2023-08-03T12:27:09.684Z,22.41
2023-08-03T12:28:04.982Z,22.39
2023-08-03T12:30:03.581Z,22.39
2023-08-03T12:31:03.626Z,22.39
2023-08-03T12:32:03.531Z,22.38
2023-08-03T12:33:03.526Z,22.38
2023-08-03T12:34:03.582Z,22.38
2023-08-03T12:35:03.491Z,22.39
2023-08-03T12:36:03.484Z,22.39
2023-08-03T12:37:03.552Z,22.38
2023-08-03T12:39:03.690Z,22.39
2023-08-03T12:40:03.468Z,22.39
2023-08-03T12:41:03.449Z,22.39
2023-08-03T12:42:03.432Z,22.38
2023-08-03T12:43:03.450Z,22.39
2023-08-03T12:44:03.458Z,22.39
2023-08-03T12:45:03.517Z,22.38
2023-08-03T12:46:03.588Z,22.39
2023-08-03T12:47:08.683Z,22.39
2023-08-03T12:48:16.761Z,22.38
2023-08-03T12:49:04.540Z,22.38
2023-08-03T12:50:03.396Z,22.39
2023-08-03T12:51:03.327Z,22.38
2023-08-03T12:52:03.282Z,22.38
2023-08-03T12:53:03.299Z,22.39
2023-08-03T12:54:03.276Z,22.39
2023-08-03T12:55:03.291Z,22.39
2023-08-03T12:56:03.273Z,22.39
2023-08-03T12:57:03.392Z,22.39
2023-08-03T12:58:03.226Z,22.41
2023-08-03T12:59:03.271Z,22.39
2023-08-03T13:00:03.262Z,22.39
2023-08-03T13:01:03.263Z,22.39
2023-08-03T13:02:03.274Z,22.39
2023-08-03T13:03:03.307Z,22.39
2023-08-03T13:04:03.199Z,22.39
2023-08-03T13:05:03.326Z,22.39
2023-08-03T13:06:03.198Z,22.39
2023-08-03T13:07:03.144Z,22.39
2023-08-03T13:08:03.254Z,22.38
2023-08-03T13:09:03.107Z,22.39
2023-08-03T13:10:03.159Z,22.41
2023-08-03T13:11:03.163Z,22.41
2023-08-03T13:12:03.198Z,22.41
2023-08-03T13:13:03.518Z,22.39
2023-08-03T13:14:03.262Z,22.39
2023-08-03T13:15:03.076Z,22.39